Weather observations for the past three days for
Granbury, Granbury Municipal Airport
Imperial (Metric)
Date Time (cdt) Wind (mph) Vis. (mi.) Weather Sky Cond. Temperature (ºF) Relative Humidity Wind Chill (°F) Heat Index (°F) Pressure Precipitation (in)
Air Dwpt 6 hour altimeter (in) sea level (mb) 1 hr 3 hr 6 hr
Max. Min.
10 09:35 SE 14 10.00 Overcast OVC016 73.4 66.2 78% 29.94 0.0
10 09:15 E 15 G 23 10.00 Overcast OVC016 73.4 66.2 78% 29.94 0.0
10 08:55 E 14 10.00 Mostly Cloudy SCT016 BKN060 BKN070 73.4 66.2 78% 29.94 0.0
10 08:35 E 13 G 22 10.00 Overcast BKN016 BKN023 OVC060 71.6 64.4 78% 29.94 0.0
10 07:55 E 13 9.00 Overcast OVC011 71.6 68 88% 29.93 0.0
10 07:35 SE 9 10.00 Mostly Cloudy SCT011 BKN055 71.6 68 88% 29.92 0.0
10 07:15 SE 12 G 17 10.00 Mostly Cloudy BKN055 71.6 68 88% 29.9 0.0
10 06:55 E 12 10.00 Overcast OVC055 71.6 66.2 75.7 69.1 83% 29.9 0.0
10 06:35 E 10 10.00 Overcast OVC055 69.8 66.2 88% 29.9 0.0
10 06:15 E 10 10.00 Overcast OVC055 69.8 66.2 88% 29.89 0.0
10 05:55 E 9 10.00 Mostly Cloudy BKN055 69.8 66.2 88% 29.88 0.0
10 05:35 E 12 10.00 A Few Clouds FEW055 69.8 66.2 88% 29.87 0.0
10 05:15 E 9 10.00 Fair CLR 69.8 66.2 88% 29.85 0.0
10 04:55 E 6 10.00 Fair CLR 69.8 66.2 88% 29.85 0.0
10 04:35 NE 7 10.00 Fair CLR 69.8 66.2 88% 29.85 0.0
10 04:15 NE 6 10.00 Fair CLR 71.6 66.2 83% 29.84 0.0
10 03:55 E 6 10.00 Fair CLR 71.6 66.2 83% 29.82 0.0
10 03:35 SE 7 10.00 Fair CLR 71.6 66.2 83% 29.81 0.0
10 03:15 SE 7 10.00 Fair CLR 71.6 66.2 83% 29.8 0.0
10 02:55 SE 7 10.00 Fair CLR 71.6 66.2 83% 29.8 0.0
10 02:35 SE 9 10.00 Fair CLR 73.4 66.2 78% 29.8 0.0
10 02:15 E 7 10.00 Fair CLR 73.4 66.2 78% 29.81 0.0
10 01:55 S 9 10.00 Fair CLR 73.4 66.2 78% 29.79 0.0
10 01:35 S 8 10.00 Fair CLR 73.4 66.2 78% 29.79 0.0
10 01:15 S 9 10.00 Fair CLR 75.2 66.2 74% 77 29.79 0.0
10 00:55 S 14 G 18 10.00 Fair CLR 75.2 64.4 90.1 75 69% 77 29.77 0.0
10 00:35 S 14 G 17 10.00 Fair CLR 77 64.4 65% 79 29.77 0.0
10 00:15 S 12 10.00 Fair CLR 77 64.4 65% 79 29.77 0.0
09 23:55 S 12 10.00 Fair CLR 77 62.6 61% 79 29.77 0.0
09 23:35 SE 9 10.00 Fair CLR 77 60.8 57% 79 29.77 0.0
09 23:15 S 12 10.00 Fair CLR 77 60.8 57% 79 29.78 0.0
09 22:55 S 9 10.00 Fair CLR 77 60.8 57% 79 29.78 0.0
09 22:15 S 9 10.00 Fair CLR 77 59 54% 79 29.78 0.0
09 21:55 S 8 10.00 Fair CLR 75.2 60.8 61% 77 29.78 0.0
09 21:35 SE 6 10.00 Fair CLR 77 60.8 57% 79 29.77 0.0
09 21:15 S 6 10.00 Fair CLR 78.8 60.8 54% 80 29.76 0.0
09 20:55 SE 8 10.00 Fair CLR 80.6 60.8 51% 81 29.76 0.0
09 20:35 SE 9 10.00 Fair CLR 82.4 62.6 51% 83 29.75 0.0
09 20:15 SE 9 10.00 Fair CLR 82.4 62.6 51% 83 29.74 0.0
09 19:55 SE 9 10.00 Fair CLR 86 60.8 43% 86 29.74 0.0
09 19:35 E 10 10.00 Fair CLR 87.8 60.8 40% 88 29.74 0.0
09 19:15 SE 8 10.00 Fair CLR 89.6 59 36% 89 29.74 0.0
09 18:55 SE 8 10.00 Fair CLR 89.6 59 91.8 84 36% 89 29.74 0.0
09 18:35 E 8 10.00 Fair CLR 89.6 59 36% 89 29.74 0.0
09 18:15 E 9 10.00 Fair CLR 91.4 59 34% 91 29.74 0.0
09 17:55 E 7 10.00 Fair CLR 91.4 59 34% 91 29.74 0.0
09 17:35 E 5 10.00 Fair CLR 89.6 59 36% 89 29.74 0.0
09 17:15 SE 9 10.00 Fair CLR 91.4 59 34% 91 29.74 0.0
09 16:55 Vrbl 3 10.00 Fair CLR 91.4 59 34% 91 29.74 0.0
09 16:35 Vrbl 5 10.00 Fair CLR 89.6 57.2 33% 88 29.75 0.0
09 16:15 NE 8 10.00 Fair CLR 91.4 59 34% 91 29.76 0.0
09 15:55 SE 8 10.00 Fair CLR 89.6 59 36% 89 29.77 0.0
09 15:35 Vrbl 3 10.00 Fair CLR 89.6 57.2 33% 88 29.78 0.0
09 15:15 E 6 10.00 Fair CLR 89.6 57.2 33% 88 29.78 0.0
09 14:55 E 7 10.00 Fair CLR 89.6 59 36% 89 29.79 0.0
09 14:35 NE 6 10.00 Fair CLR 87.8 59 38% 87 29.8 0.0
09 14:15 Vrbl 3 10.00 Fair CLR 87.8 60.8 40% 88 29.8 0.0
09 13:55 Vrbl 2 10.00 Fair CLR 86 60.8 43% 86 29.81 0.0
09 13:35 Vrbl 7 10.00 Fair CLR 86 60.8 43% 86 29.81 0.0
09 13:15 Vrbl 6 10.00 Fair CLR 86 62.6 46% 87 29.82 0.0
09 12:55 Vrbl 2 10.00 Fair CLR 84.2 60.8 84.4 62.8 45% 84 29.83 0.0
09 12:35 NW 6 10.00 Fair CLR 84.2 62.6 48% 85 29.84 0.0
09 12:15 N 6 10.00 Fair CLR 84.2 60.8 45% 84 29.84 0.0
09 11:55 Vrbl 5 10.00 Fair CLR 80.6 60.8 51% 81 29.85 0.0
09 11:35 NW 3 10.00 Fair CLR 80.6 60.8 51% 81 29.85 0.0
09 11:15 NW 6 10.00 Fair CLR 78.8 60.8 54% 80 29.85 0.0
09 10:55 Vrbl 3 10.00 Light Drizzle CLR 77 60.8 57% 79 29.85 0.0
09 10:35 Vrbl 5 10.00 Fair CLR 78.8 60.8 54% 80 29.85 0.0
09 10:15 Vrbl 5 10.00 Fair CLR 77 62.6 61% 79 29.85 0.0
09 09:55 Vrbl 6 10.00 Fair CLR 75.2 62.6 65% 77 29.86 0.0
09 09:35 NW 7 10.00 Fair CLR 73.4 62.6 69% 29.86 0.0
09 09:15 NW 8 10.00 Fair CLR 73.4 62.6 69% 29.85 0.0
09 08:55 NW 10 10.00 Fair CLR 73.4 62.6 69% 29.85 0.0
09 08:35 NW 9 10.00 Fair CLR 69.8 60.8 73% 29.85 0.0
09 08:15 NW 7 10.00 Fair CLR 68 60.8 78% 29.84 0.0
09 07:55 N 8 10.00 Fair CLR 66.2 60.8 83% 29.83 0.0
09 07:35 N 6 10.00 Fair CLR 66.2 60.8 83% 29.83 0.0
09 07:15 N 5 10.00 Fair CLR 64.4 60.8 88% 29.83 0.0
09 06:55 N 6 10.00 Fair CLR 62.6 60.8 94% 29.83 0.0
09 06:35 W 7 10.00 Fair CLR 64.4 62.6 94% 29.83 0.0
09 06:15 SW 5 10.00 Fair CLR 64.4 62.6 94% 29.82 0.0
09 05:55 SW 6 10.00 Fair CLR 66.2 62.6 88% 29.83 0.0
09 05:35 NE 6 10.00 NULL NULL 66.2 62.6 88% 29.8 0.0
08 23:35 S 6 10.00 Fair CLR 69.8 66.2 88% 29.81 0.0
08 23:15 S 6 10.00 Fair CLR 69.8 66.2 88% 29.8 0.0
08 22:55 S 12 10.00 Fair CLR 69.8 66.2 88% 29.8 0.0
08 22:35 S 9 10.00 Fair CLR 69.8 66.2 88% 29.79 0.0
08 22:15 S 7 10.00 Fair CLR 69.8 66.2 88% 29.8 0.0
08 21:55 SE 6 10.00 Fair CLR 71.6 66.2 83% 29.79 0.0
08 21:35 S 8 10.00 Mostly Cloudy BKN060 71.6 66.2 83% 29.78 0.0
08 21:15 SE 6 10.00 Overcast FEW027 OVC060 71.6 66.2 83% 29.78 0.0
08 20:55 SE 6 10.00 Overcast BKN027 OVC060 71.6 66.2 83% 29.78 0.0
08 20:35 SE 5 10.00 Overcast BKN027 OVC060 71.6 66.2 83% 29.77 0.0
08 20:15 SE 5 10.00 Mostly Cloudy BKN029 BKN060 73.4 66.2 78% 29.77 0.0
08 19:35 E 5 10.00 Overcast OVC025 75.2 66.2 74% 77 29.75 0.0
08 19:15 SE 6 10.00 Overcast OVC025 75.2 66.2 74% 77 29.76 0.0
08 18:55 SE 6 10.00 Overcast OVC025 77 66.2 77.5 65.5 69% 79 29.76 0.0
08 18:35 S 7 10.00 Overcast OVC027 75.2 66.2 74% 77 29.76 0.0
08 18:15 SE 8 10.00 Mostly Cloudy BKN029 75.2 66.2 74% 77 29.76 0.0
08 17:55 SE 9 10.00 A Few Clouds FEW031 75.2 66.2 74% 77 29.75 0.0
08 17:15 SE 9 10.00 Overcast OVC023 75.2 66.2 74% 77 29.77 0.0
08 16:55 E 8 10.00 Overcast OVC023 73.4 64.4 74% 29.77 0.0
08 16:35 E 8 10.00 Mostly Cloudy BKN021 BKN120 73.4 62.6 69% 29.79 0.0
08 16:15 E 8 10.00 Mostly Cloudy BKN021 BKN120 71.6 62.6 73% 29.79 0.0
08 15:55 Vrbl 6 10.00 Mostly Cloudy BKN021 71.6 62.6 73% 29.8 0.0
08 15:35 E 7 10.00 Mostly Cloudy BKN021 BKN110 69.8 62.6 78% 29.81 0.0
08 15:15 Vrbl 6 10.00 Mostly Cloudy SCT021 BKN110 69.8 62.6 78% 29.82 0.0
08 14:55 SE 10 G 17 10.00 Mostly Cloudy BKN110 68 64.4 88% 29.81 0.0
08 14:35 SE 12 7.00 Light Rain BKN022 BKN055 BKN110 66.2 62.6 88% 29.83 0.0
08 14:15 S 7 2.00 Light Rain Haze OVC024 68 60.8 78% 29.86 0.0
08 13:55 SE 8 10.00 Overcast BKN026 OVC060 71.6 59 65% 29.86 0.0
08 13:35 SE 8 10.00 Mostly Cloudy BKN026 BKN033 BKN060 73.4 60.8 65% 29.85 0.0
08 13:15 SE 10 10.00 Overcast OVC026 71.6 59 65% 29.87 0.0
08 12:55 SE 10 10.00 Overcast OVC026 71.6 59 74.1 56.1 65% 29.88 0.0
08 12:35 E 6 10.00 Mostly Cloudy BKN024 71.6 59 65% 29.89 0.0
08 12:15 E 7 10.00 Mostly Cloudy BKN024 73.4 59 61% 29.88 0.0
08 11:55 SE 8 10.00 Overcast OVC022 69.8 57.2 64% 29.89 0.0
08 11:35 Vrbl 6 10.00 Overcast OVC020 69.8 57.2 64% 29.9 0.0
08 11:15 SE 8 10.00 Overcast OVC020 68 57.2 69% 29.91 0.0
08 10:55 SE 6 10.00 Overcast OVC020 66.2 55.4 68% 29.92 0.0
08 10:35 SE 8 10.00 Overcast OVC020 66.2 55.4 68% 29.93 0.0
08 10:15 E 7 10.00 Overcast OVC022 66.2 57.2 73% 29.93 0.0
08 09:55 E 5 10.00 Overcast OVC022 64.4 57.2 78% 29.94 0.0
08 09:35 Vrbl 5 10.00 Overcast BKN018 OVC024 66.2 55.4 68% 29.94 0.0
08 09:15 Vrbl 2 10.00 Overcast OVC020 66.2 55.4 68% 29.94 0.0
08 08:55 Calm 10.00 Overcast OVC020 64.4 57.2 78% 29.94 0.0
08 08:15 Vrbl 3 10.00 Overcast OVC018 60.8 57.2 88% 29.94 0.0
08 07:35 E 2 10.00 Mostly Cloudy FEW020 BKN060 BKN090 59 55.4 88% 29.94 0.0
08 07:15 E 1 10.00 Mostly Cloudy BKN050 BKN080 BKN090 57.2 55.4 94% 29.94 0.0
08 06:55 S 3 10.00 Overcast BKN055 OVC080 57.2 55.4 59 54.1 94% 29.94 0.0
08 06:35 NE 5 10.00 Light Rain BKN055 OVC075 55.4 53.6 94% 29.94 0.0
08 06:15 N 3 10.00 Overcast SCT049 OVC075 57.2 53.6 88% 29.95 0.0
08 05:55 S 5 10.00 Overcast BKN049 BKN060 OVC075 57.2 55.4 94% 29.95 0.0
08 05:35 S 8 10.00 Overcast OVC055 55.4 53.6 94% 29.94 0.0
08 05:15 SW 5 10.00 Overcast OVC055 55.4 53.6 94% 29.95 0.0
08 04:55 SW 6 10.00 Overcast OVC055 53.6 53.6 100% 29.95 0.0
08 04:35 NW 3 10.00 Overcast BKN065 OVC070 55.4 53.6 94% 29.95 0.0
08 04:15 NW 3 10.00 Mostly Cloudy FEW046 BKN055 BKN075 55.4 53.6 94% 29.94 0.0
08 03:55 E 3 10.00 Overcast BKN046 BKN055 OVC075 57.2 53.6 88% 29.93 0.0
08 03:35 SE 3 10.00 Overcast OVC046 57.2 53.6 88% 29.93 0.0
08 03:15 S 5 10.00 Overcast BKN046 OVC060 57.2 53.6 88% 29.93 0.0
08 02:35 NE 1 10.00 Overcast SCT060 BKN070 OVC080 59 53.6 82% 29.96 0.0
08 02:15 N 3 10.00 Overcast OVC070 59 53.6 82% 29.97 0.0
08 01:55 NW 2 10.00 Overcast OVC070 57.2 53.6 88% 29.97 0.0
08 01:35 N 3 10.00 Overcast OVC070 57.2 53.6 88% 29.97 0.0
08 01:15 Calm 10.00 Overcast OVC070 57.2 53.6 88% 29.98 0.0
08 00:55 S 2 10.00 Overcast OVC070 59 53.6 66.9 58.8 82% 29.97 0.0
08 00:35 SW 5 10.00 Overcast OVC070 59 53.6 82% 29.98 0.0
08 00:15 SW 2 10.00 Mostly Cloudy BKN060 BKN075 60.8 53.6 77% 29.98 0.0
07 23:55 SW 7 10.00 Partly Cloudy FEW060 SCT110 59 53.6 82% 29.99 0.0
07 23:35 SW 5 10.00 Mostly Cloudy FEW055 BKN110 59 53.6 82% 29.99 0.0
07 23:15 SW 2 10.00 Partly Cloudy FEW055 SCT120 59 53.6 82% 29.98 0.0
07 22:55 SW 3 10.00 Overcast OVC120 60.8 53.6 77% 29.99 0.0
07 22:35 S 3 10.00 Mostly Cloudy BKN120 60.8 53.6 77% 29.98 0.0
07 21:55 S 3 10.00 Mostly Cloudy FEW055 BKN120 62.6 51.8 68% 29.96 0.0
07 21:35 S 1 10.00 Mostly Cloudy SCT055 BKN120 62.6 53.6 73% 29.96 0.0
07 21:15 SE 1 10.00 Mostly Cloudy SCT055 BKN120 62.6 53.6 73% 29.95 0.0
07 20:55 S 5 10.00 Mostly Cloudy FEW055 BKN120 62.6 51.8 68% 29.95 0.0
07 20:35 SE 5 10.00 Partly Cloudy SCT120 64.4 51.8 64% 29.95 0.0
07 20:15 S 3 10.00 Fair CLR 64.4 51.8 64% 29.95 0.0
07 19:55 SE 3 10.00 Fair CLR 64.4 51.8 64% 29.96 0.0
07 19:35 SE 5 10.00 Fair CLR 66.2 50 56% 29.95 0.0
07 19:15 S 5 10.00 Fair CLR 66.2 51.8 60% 29.96 0.0
07 18:55 S 6 10.00 Fair CLR 66.2 51.8 72.3 66.7 60% 29.96 0.0
07 18:36 S 6 10.00 Fair CLR 66.2 51.8 60% 29.98 0.0
07 18:15 S 7 10.00 Fair CLR 68 50 53% 29.97 0.0
07 17:55 SE 6 10.00 Fair CLR 68 50 53% 29.98 0.0
07 17:35 Vrbl 2 10.00 Fair CLR 68 50 53% 29.98 0.0
07 17:15 SE 6 10.00 Fair CLR 68 51.8 56% 29.98 0.0
07 16:55 SE 7 10.00 Fair CLR 68 50 53% 29.99 0.0
07 16:35 SE 9 10.00 Fair CLR 68 50 53% 29.98 0.0
07 16:15 Vrbl 6 10.00 Fair CLR 69.8 50 50% 29.99 0.0
07 15:55 Vrbl 5 10.00 A Few Clouds FEW120 69.8 48.2 46% 30.01 0.0
07 15:35 SE 6 10.00 A Few Clouds FEW120 69.8 50 50% 30.02 0.0
07 15:15 Vrbl 6 10.00 A Few Clouds FEW120 69.8 48.2 46% 30.01 0.0
07 14:35 NE 8 10.00 A Few Clouds FEW120 71.6 48.2 44% 30.02 0.0
07 14:15 NE 6 10.00 Fair CLR 69.8 48.2 46% 30.02 0.0
07 13:55 NE 2 10.00 Fair CLR 71.6 50 47% 30.04 0.0
07 13:35 Vrbl 7 10.00 Fair CLR 71.6 48.2 44% 30.05 0.0
07 13:15 Vrbl 6 G 17 10.00 Fair CLR 71.6 48.2 44% 30.05 0.0
07 12:55 NE 16 10.00 Fair CLR 69.8 48.2 70.5 49.3 46% 30.05 0.0
07 12:15 N 13 10.00 Fair CLR 68 50 53% 30.06 0.0
07 11:55 N 7 10.00 Fair CLR 68 50 53% 30.07 0.0
07 11:35 NE 9 10.00 Fair CLR 66.2 50 56% 30.09 0.0
07 10:55 NE 9 10.00 Fair CLR 64.4 50 60% 30.1 0.0
07 10:36 NE 9 10.00 Fair CLR 64.4 50 60% 30.09 0.0
07 10:15 NE 7 10.00 Fair CLR 62.6 50 64% 30.1 0.0
07 09:55 NE 7 10.00 Fair CLR 62.6 51.8 68% 30.1 0.0
Date Time (cdt) Wind (mph) Vis. (mi.) Weather Sky Cond. Air Dwpt Max. Min. Relative Humidity Wind Chill (°F) Heat Index (°F) altimeter (in) sea level (mb) 1 hr 3 hr 6 hr
6 hour
Temperature (ºF) Pressure Precipitation (in)